Time;durP1;ratioP1;P1;durP2;ratioP2;P2;SDS_P1;SDS_P2;PMS_P1;PMS_P2;Temp;Humidity;BMP_temperature;BMP_pressure;BME280_temperature;BME280_humidity;BME280_pressure;Samples;Min_cycle;Max_cycle;Signal;HPM_P1;HPM_P2
2024/01/24 00:02:12;;;;;;;4.18;1.17;;;13.40;99.90;;;;;;5013079;28;20104;-68
2024/01/24 00:04:38;;;;;;;3.50;1.60;;;13.40;99.90;;;;;;5016492;28;20527;-69
2024/01/24 00:07:05;;;;;;;2.60;1.05;;;13.50;99.90;;;;;;5012829;28;20252;-69
2024/01/24 00:09:33;;;;;;;7.47;1.48;;;13.50;99.90;;;;;;5016756;28;20060;-70
2024/01/24 00:12:00;;;;;;;5.30;1.20;;;13.50;99.90;;;;;;5019393;28;20056;-69
2024/01/24 00:14:27;;;;;;;6.28;0.98;;;13.50;99.90;;;;;;5017250;28;20468;-69
2024/01/24 00:16:54;;;;;;;3.50;1.00;;;13.40;99.90;;;;;;5015823;28;20053;-69
2024/01/24 00:19:21;;;;;;;4.68;1.02;;;13.40;99.90;;;;;;5020714;28;20049;-69
2024/01/24 00:21:48;;;;;;;9.45;1.83;;;13.40;99.90;;;;;;5021004;28;20107;-69
2024/01/24 00:24:15;;;;;;;5.40;1.23;;;13.40;99.90;;;;;;5020661;28;20053;-69
2024/01/24 00:26:41;;;;;;;3.92;1.17;;;13.40;99.90;;;;;;5023088;28;20151;-70
2024/01/24 00:29:08;;;;;;;8.45;1.63;;;13.40;99.90;;;;;;5019697;28;20081;-68
2024/01/24 00:31:35;;;;;;;11.10;2.33;;;13.40;99.90;;;;;;5022913;28;20049;-68
2024/01/24 00:34:02;;;;;;;7.00;1.80;;;13.40;99.90;;;;;;5017684;28;20072;-67
2024/01/24 00:36:29;;;;;;;7.15;1.95;;;13.40;99.90;;;;;;5023926;28;20088;-68
2024/01/24 00:38:56;;;;;;;13.95;2.72;;;13.40;99.90;;;;;;5020933;28;20129;-69
2024/01/24 00:41:23;;;;;;;12.50;2.67;;;13.40;99.90;;;;;;5022779;28;20065;-71
2024/01/24 00:43:49;;;;;;;15.23;4.65;;;13.30;99.90;;;;;;5018700;28;20057;-70
2024/01/24 00:46:16;;;;;;;11.18;3.35;;;13.30;99.90;;;;;;5018460;28;20557;-70
2024/01/24 00:48:43;;;;;;;14.82;2.58;;;13.20;99.90;;;;;;5018249;28;20095;-70
2024/01/24 00:51:10;;;;;;;18.30;3.28;;;13.30;99.90;;;;;;5020823;28;20300;-68
2024/01/24 00:53:37;;;;;;;22.40;3.83;;;13.20;99.90;;;;;;5018155;28;20183;-69
2024/01/24 00:56:05;;;;;;;17.20;3.35;;;13.30;99.90;;;;;;5021908;28;20060;-68
2024/01/24 00:58:31;;;;;;;14.23;2.65;;;13.30;99.90;;;;;;5024271;28;20050;-70
2024/01/24 01:00:58;;;;;;;12.82;2.88;;;13.30;99.90;;;;;;5014597;28;20053;-68
2024/01/24 01:03:25;;;;;;;11.48;1.95;;;13.20;99.90;;;;;;5020977;28;20045;-68
2024/01/24 01:05:52;;;;;;;11.88;3.33;;;13.20;99.90;;;;;;5020415;28;20045;-68
2024/01/24 01:08:19;;;;;;;20.55;3.15;;;13.20;99.90;;;;;;5028724;28;20199;-68
2024/01/24 01:10:46;;;;;;;15.35;3.38;;;13.20;99.90;;;;;;5021172;28;20115;-68
2024/01/24 01:13:13;;;;;;;16.05;2.75;;;13.30;99.90;;;;;;5025096;28;20107;-68
2024/01/24 01:15:40;;;;;;;28.05;3.85;;;13.30;99.90;;;;;;5019418;28;20052;-69
2024/01/24 01:18:08;;;;;;;18.75;3.67;;;13.20;99.90;;;;;;5024905;28;20057;-69
2024/01/24 01:20:35;;;;;;;20.42;4.10;;;13.20;99.90;;;;;;5020912;28;20065;-67
2024/01/24 01:23:03;;;;;;;21.52;4.53;;;13.10;99.90;;;;;;5023550;28;20045;-68
2024/01/24 01:25:30;;;;;;;17.35;2.83;;;13.10;99.90;;;;;;5016660;28;20116;-70
2024/01/24 01:27:56;;;;;;;24.08;5.15;;;13.00;99.90;;;;;;5021247;28;20057;-68
2024/01/24 01:30:23;;;;;;;22.92;4.28;;;13.00;99.90;;;;;;5020446;28;20129;-69
2024/01/24 01:32:50;;;;;;;22.25;4.20;;;12.90;99.90;;;;;;5021171;28;20382;-68
2024/01/24 01:35:17;;;;;;;32.00;5.88;;;12.90;99.90;;;;;;5019635;28;20061;-69
2024/01/24 01:37:44;;;;;;;21.85;4.05;;;12.90;99.90;;;;;;5040938;28;20247;-68
2024/01/24 01:40:11;;;;;;;22.63;5.53;;;12.90;99.90;;;;;;5021788;28;20107;-70
2024/01/24 01:42:47;;;;;;;25.58;4.63;;;12.90;99.90;;;;;;5023658;28;20125;-68
2024/01/24 01:45:13;;;;;;;31.05;4.88;;;12.80;99.90;;;;;;5024684;28;20048;-68
2024/01/24 01:47:41;;;;;;;26.10;5.07;;;12.90;99.90;;;;;;5018313;28;20425;-68
2024/01/24 01:50:11;;;;;;;23.35;5.13;;;12.90;99.90;;;;;;5024595;28;20048;-70
2024/01/24 01:52:38;;;;;;;29.30;6.55;;;12.80;99.90;;;;;;5023685;28;20324;-68
2024/01/24 01:55:05;;;;;;;35.55;5.95;;;12.80;99.90;;;;;;5025947;28;20069;-68
2024/01/24 01:57:32;;;;;;;32.63;5.55;;;12.70;99.90;;;;;;5005773;28;20073;-69
2024/01/24 01:59:59;;;;;;;33.78;5.75;;;12.80;99.90;;;;;;5022492;28;20412;-68
2024/01/24 02:02:26;;;;;;;26.20;4.35;;;12.70;99.90;;;;;;5016042;28;20080;-69
2024/01/24 02:04:52;;;;;;;27.75;5.32;;;12.70;99.90;;;;;;5024496;28;20468;-69
2024/01/24 02:07:19;;;;;;;34.65;6.15;;;12.70;99.90;;;;;;5016841;28;20089;-68
2024/01/24 02:09:46;;;;;;;28.60;6.05;;;12.70;99.90;;;;;;5018885;28;20061;-71
2024/01/24 02:12:13;;;;;;;32.60;6.13;;;12.70;99.90;;;;;;5018608;28;20072;-68
2024/01/24 02:14:40;;;;;;;39.17;6.53;;;12.70;99.90;;;;;;5024501;28;20041;-69
2024/01/24 02:17:07;;;;;;;31.63;5.32;;;12.70;99.90;;;;;;5021282;28;20049;-69
2024/01/24 02:19:33;;;;;;;42.17;7.88;;;12.60;99.90;;;;;;5015810;28;20049;-69
2024/01/24 02:22:00;;;;;;;49.72;7.55;;;12.60;99.90;;;;;;5017669;28;20228;-68
2024/01/24 02:24:27;;;;;;;32.65;5.43;;;12.60;99.90;;;;;;5018668;28;20678;-69
2024/01/24 02:26:54;;;;;;;41.55;8.55;;;12.60;99.90;;;;;;5014195;28;20049;-68
2024/01/24 02:29:21;;;;;;;41.90;8.25;;;12.60;99.90;;;;;;5019083;28;20081;-69
2024/01/24 02:31:47;;;;;;;35.60;6.57;;;12.60;99.90;;;;;;5019935;28;20389;-69
2024/01/24 02:34:14;;;;;;;36.47;5.40;;;12.60;99.90;;;;;;5020496;28;20046;-69
2024/01/24 02:36:41;;;;;;;33.97;6.63;;;12.60;99.90;;;;;;5025523;28;20344;-69
2024/01/24 02:39:08;;;;;;;36.85;6.13;;;12.50;99.90;;;;;;5020539;28;20115;-69
2024/01/24 02:41:35;;;;;;;35.35;5.20;;;12.40;99.90;;;;;;5021595;28;20049;-69
2024/01/24 02:44:02;;;;;;;28.35;5.53;;;12.40;99.90;;;;;;5022330;28;20053;-70
2024/01/24 02:46:29;;;;;;;35.45;7.13;;;12.40;99.90;;;;;;5024385;28;20045;-69
2024/01/24 02:48:56;;;;;;;40.35;7.40;;;12.30;99.90;;;;;;5019781;28;20575;-69
2024/01/24 02:51:26;;;;;;;34.60;6.03;;;12.30;99.90;;;;;;5022880;28;20099;-67
2024/01/24 02:53:53;;;;;;;37.80;6.35;;;12.30;99.90;;;;;;5015479;28;20164;-70
2024/01/24 02:56:20;;;;;;;33.10;6.15;;;12.30;99.90;;;;;;5023139;28;20103;-71
2024/01/24 02:58:47;;;;;;;37.22;7.63;;;12.30;99.90;;;;;;5013705;28;20065;-69
2024/01/24 03:01:15;;;;;;;40.65;6.63;;;12.30;99.90;;;;;;5019773;28;20496;-68
2024/01/24 03:03:45;;;;;;;34.45;5.75;;;12.20;99.90;;;;;;5018108;28;20081;-68
2024/01/24 03:06:12;;;;;;;33.05;6.72;;;12.10;99.90;;;;;;5038641;28;20507;-69
2024/01/24 03:08:56;;;;;;;31.73;5.90;;;12.10;99.90;;;;;;5020708;28;20050;-68
2024/01/24 03:11:23;;;;;;;40.33;7.63;;;12.00;99.90;;;;;;5023130;28;20053;-69
2024/01/24 03:13:50;;;;;;;31.58;6.60;;;12.00;99.90;;;;;;5015508;28;20053;-69
2024/01/24 03:16:17;;;;;;;42.78;9.60;;;11.90;99.90;;;;;;5021422;28;20042;-69
2024/01/24 03:18:44;;;;;;;35.15;6.20;;;11.90;99.90;;;;;;5017526;28;20041;-70
2024/01/24 03:21:15;;;;;;;35.88;5.47;;;11.90;99.90;;;;;;5018172;28;20099;-69
2024/01/24 03:23:42;;;;;;;26.88;7.03;;;11.90;99.90;;;;;;5014613;28;20133;-69
2024/01/24 03:26:09;;;;;;;37.67;6.03;;;11.80;99.90;;;;;;5017379;28;20504;-69
2024/01/24 03:28:35;;;;;;;40.53;7.10;;;11.80;99.90;;;;;;5017043;28;20112;-69
2024/01/24 03:31:02;;;;;;;29.52;5.30;;;11.80;99.90;;;;;;5017634;28;20353;-69
2024/01/24 03:33:29;;;;;;;32.25;6.80;;;11.70;99.90;;;;;;5020478;28;20054;-69
2024/01/24 03:35:56;;;;;;;52.10;8.45;;;11.70;99.90;;;;;;5020572;28;20068;-69
2024/01/24 03:38:23;;;;;;;33.30;6.38;;;11.70;99.90;;;;;;5016778;28;20460;-69
2024/01/24 03:40:50;;;;;;;30.48;5.95;;;11.70;99.90;;;;;;5016205;28;20333;-69
2024/01/24 03:43:17;;;;;;;34.42;7.95;;;11.70;99.90;;;;;;5022237;28;20073;-69
2024/01/24 03:45:43;;;;;;;31.92;6.53;;;11.70;99.90;;;;;;5019713;28;20041;-69
2024/01/24 03:48:10;;;;;;;52.65;6.88;;;11.60;99.90;;;;;;5016706;28;20052;-69
2024/01/24 03:50:38;;;;;;;34.75;5.55;;;11.60;99.90;;;;;;5015520;28;20096;-69
2024/01/24 03:53:05;;;;;;;31.70;6.78;;;11.60;99.90;;;;;;5019092;28;20053;-71
2024/01/24 03:55:32;;;;;;;38.17;6.90;;;11.60;99.90;;;;;;5017527;28;20073;-70
2024/01/24 03:57:58;;;;;;;38.63;7.53;;;11.50;99.90;;;;;;5024055;28;20132;-70
2024/01/24 04:00:27;;;;;;;32.05;6.10;;;11.50;99.90;;;;;;5020183;28;20092;-70
2024/01/24 04:02:54;;;;;;;45.72;7.75;;;11.50;99.90;;;;;;5017442;28;20045;-70
2024/01/24 04:05:21;;;;;;;39.95;6.90;;;11.50;99.90;;;;;;5024378;28;20053;-69
2024/01/24 04:07:48;;;;;;;37.58;7.18;;;11.50;99.90;;;;;;5044981;28;20084;-69
2024/01/24 04:10:15;;;;;;;37.58;7.00;;;11.50;99.90;;;;;;5019855;28;20228;-69
2024/01/24 04:12:43;;;;;;;41.35;7.47;;;11.50;99.90;;;;;;5019743;28;20585;-70
2024/01/24 04:15:10;;;;;;;42.28;7.20;;;11.40;99.90;;;;;;5019074;28;20082;-69
2024/01/24 04:17:36;;;;;;;20.15;5.82;;;11.40;99.90;;;;;;5019387;28;20057;-69
2024/01/24 04:20:04;;;;;;;35.20;6.85;;;11.40;99.90;;;;;;5021856;28;20052;-69
2024/01/24 04:22:31;;;;;;;51.38;7.03;;;11.40;99.90;;;;;;5016508;28;20496;-70
2024/01/24 04:24:58;;;;;;;31.23;5.53;;;11.30;99.90;;;;;;5025845;28;20053;-70
2024/01/24 04:27:24;;;;;;;36.85;7.03;;;11.30;99.90;;;;;;5018708;28;20448;-69
2024/01/24 04:29:52;;;;;;;46.70;7.22;;;11.30;99.90;;;;;;5024383;28;20212;-69
2024/01/24 04:32:18;;;;;;;34.58;7.75;;;11.40;99.90;;;;;;5023525;28;20041;-70
2024/01/24 04:34:45;;;;;;;45.00;8.77;;;11.30;99.90;;;;;;5026223;28;20049;-70
2024/01/24 04:37:12;;;;;;;40.78;8.85;;;11.30;99.90;;;;;;5018787;28;20042;-71
2024/01/24 04:39:39;;;;;;;56.15;9.68;;;11.40;99.90;;;;;;5021598;28;20053;-71
2024/01/24 04:42:06;;;;;;;49.55;8.05;;;11.40;99.90;;;;;;5016668;28;20068;-71
2024/01/24 04:44:42;;;;;;;35.60;8.35;;;11.40;99.90;;;;;;5038232;28;20080;-70
2024/01/24 04:47:09;;;;;;;37.92;6.25;;;11.40;99.90;;;;;;5018068;28;20194;-70
2024/01/24 04:49:36;;;;;;;37.50;8.27;;;11.40;99.90;;;;;;5025176;28;20080;-70
2024/01/24 04:52:11;;;;;;;40.60;8.27;;;11.30;99.90;;;;;;5023259;28;20045;-70
2024/01/24 04:54:38;;;;;;;43.33;8.65;;;11.40;99.90;;;;;;5024144;28;20083;-72
2024/01/24 04:57:05;;;;;;;33.45;7.30;;;11.40;99.90;;;;;;5023217;28;20049;-70
2024/01/24 04:59:32;;;;;;;39.28;7.68;;;11.30;99.90;;;;;;5026819;28;20045;-70
2024/01/24 05:02:15;;;;;;;31.67;6.10;;;11.30;99.90;;;;;;5025136;28;20049;-71
2024/01/24 05:04:42;;;;;;;38.22;7.93;;;11.30;99.90;;;;;;5025562;28;20049;-71
2024/01/24 05:07:09;;;;;;;46.58;7.93;;;11.20;99.90;;;;;;5021976;28;20076;-71
2024/01/24 05:09:36;;;;;;;41.92;7.13;;;11.20;99.90;;;;;;5018027;28;20099;-71
2024/01/24 05:12:03;;;;;;;26.20;6.30;;;11.20;99.90;;;;;;5022208;28;20136;-71
2024/01/24 05:14:29;;;;;;;50.55;7.82;;;11.20;99.90;;;;;;5037240;28;20050;-70
2024/01/24 05:16:56;;;;;;;45.05;8.15;;;11.20;99.90;;;;;;5025480;28;20075;-71
2024/01/24 05:19:23;;;;;;;41.67;8.13;;;11.20;99.90;;;;;;5021539;28;20162;-70
2024/01/24 05:21:50;;;;;;;32.78;6.68;;;11.20;99.90;;;;;;5024527;28;20053;-70
2024/01/24 05:24:17;;;;;;;39.35;7.90;;;11.20;99.90;;;;;;5020260;28;20049;-70
2024/01/24 05:26:46;;;;;;;36.53;6.80;;;11.20;99.90;;;;;;5027750;28;20154;-70
2024/01/24 05:29:13;;;;;;;42.80;8.05;;;11.20;99.90;;;;;;5021277;28;20077;-70
2024/01/24 05:31:40;;;;;;;32.90;6.30;;;11.20;99.90;;;;;;5021086;28;20056;-70
2024/01/24 05:34:08;;;;;;;24.83;5.38;;;11.10;99.90;;;;;;5019118;28;20097;-70
2024/01/24 05:36:35;;;;;;;40.63;5.85;;;11.10;99.90;;;;;;5019889;28;20045;-69
2024/01/24 05:39:06;;;;;;;41.75;7.20;;;11.10;99.90;;;;;;5020679;28;20049;-70
2024/01/24 05:41:35;;;;;;;40.83;7.53;;;11.10;99.90;;;;;;5012807;28;20069;-69
2024/01/24 05:44:02;;;;;;;51.47;8.65;;;11.20;99.90;;;;;;5022477;28;20053;-70
2024/01/24 05:46:29;;;;;;;44.95;8.98;;;11.20;99.90;;;;;;5020540;28;20037;-69
2024/01/24 05:48:56;;;;;;;35.67;6.40;;;11.10;99.90;;;;;;5019787;28;20042;-70
2024/01/24 05:51:24;;;;;;;31.67;6.28;;;11.10;99.90;;;;;;5027706;28;20052;-69
2024/01/24 05:53:50;;;;;;;42.47;8.00;;;11.00;99.90;;;;;;5024996;28;20109;-70
2024/01/24 05:56:17;;;;;;;33.45;6.65;;;11.00;99.90;;;;;;5023527;28;20190;-70
2024/01/24 05:58:44;;;;;;;33.47;5.38;;;11.00;99.90;;;;;;5019877;28;20324;-70
2024/01/24 06:01:11;;;;;;;37.72;6.85;;;10.90;99.90;;;;;;5019249;28;20042;-70
2024/01/24 06:03:40;;;;;;;38.65;6.28;;;10.90;99.90;;;;;;5022004;28;20488;-69
2024/01/24 06:06:07;;;;;;;41.60;6.72;;;10.90;99.90;;;;;;5020418;28;20118;-70
2024/01/24 06:08:34;;;;;;;39.33;6.53;;;10.90;99.90;;;;;;5024114;28;20057;-71
2024/01/24 06:11:01;;;;;;;37.35;8.30;;;10.90;99.90;;;;;;5022452;28;20231;-70
2024/01/24 06:13:28;;;;;;;36.53;6.82;;;10.90;99.90;;;;;;5022351;28;20049;-70
2024/01/24 06:15:55;;;;;;;45.42;10.10;;;10.90;99.90;;;;;;5022776;28;20053;-70
2024/01/24 06:18:22;;;;;;;28.77;6.07;;;10.90;99.90;;;;;;5027233;28;20250;-70
2024/01/24 06:20:49;;;;;;;37.33;8.40;;;10.90;99.90;;;;;;5018183;28;20503;-70
2024/01/24 06:23:16;;;;;;;49.80;9.10;;;10.80;99.90;;;;;;5018779;28;20045;-69
2024/01/24 06:25:43;;;;;;;37.28;6.55;;;10.80;99.90;;;;;;5018705;28;20222;-69
2024/01/24 06:28:10;;;;;;;41.95;8.00;;;10.80;99.90;;;;;;5020807;28;20080;-70
2024/01/24 06:30:36;;;;;;;38.97;8.13;;;10.80;99.90;;;;;;5021056;28;20092;-70
2024/01/24 06:33:04;;;;;;;41.58;6.57;;;10.80;99.90;;;;;;5022797;28;20592;-70
2024/01/24 06:35:31;;;;;;;39.53;10.23;;;10.80;99.90;;;;;;5023767;28;20064;-70
2024/01/24 06:37:58;;;;;;;40.55;7.57;;;10.70;99.90;;;;;;5020179;28;20136;-71
2024/01/24 06:40:25;;;;;;;41.72;6.50;;;10.80;99.90;;;;;;5020929;28;20308;-71
2024/01/24 06:42:52;;;;;;;35.33;7.68;;;10.70;99.90;;;;;;5020956;28;20045;-70
2024/01/24 06:45:19;;;;;;;41.63;6.10;;;10.70;99.90;;;;;;5021335;28;20055;-70
2024/01/24 06:47:47;;;;;;;45.13;8.90;;;10.70;99.90;;;;;;5022482;28;20056;-69
2024/01/24 06:50:16;;;;;;;39.42;7.80;;;10.70;99.90;;;;;;5015968;28;20083;-69
2024/01/24 06:52:43;;;;;;;37.95;7.63;;;10.70;99.90;;;;;;5016032;28;20050;-71
2024/01/24 06:55:10;;;;;;;37.45;6.80;;;10.70;99.90;;;;;;5022173;28;20058;-70
2024/01/24 06:57:37;;;;;;;41.30;8.02;;;10.70;99.90;;;;;;5019648;28;20076;-70
2024/01/24 07:00:04;;;;;;;44.00;7.60;;;10.70;99.90;;;;;;5021599;28;20060;-70
2024/01/24 07:02:32;;;;;;;39.88;6.93;;;10.60;99.90;;;;;;5017193;28;20139;-69
2024/01/24 07:04:59;;;;;;;45.63;7.15;;;10.60;99.90;;;;;;5023264;28;20057;-70
2024/01/24 07:07:26;;;;;;;32.47;6.43;;;10.60;99.90;;;;;;5016295;28;20060;-69
2024/01/24 07:09:53;;;;;;;34.53;7.43;;;10.70;99.90;;;;;;5023920;28;20080;-69
2024/01/24 07:12:20;;;;;;;40.55;7.65;;;10.60;99.90;;;;;;5016102;28;20133;-69
2024/01/24 07:14:50;;;;;;;54.15;8.98;;;10.60;99.90;;;;;;5018997;28;20057;-69
2024/01/24 07:17:19;;;;;;;32.30;6.15;;;10.60;99.90;;;;;;5014372;28;20053;-69
2024/01/24 07:19:46;;;;;;;39.58;7.97;;;10.60;99.90;;;;;;5023093;28;20057;-69
2024/01/24 07:22:15;;;;;;;49.20;7.13;;;10.60;99.90;;;;;;5016935;28;20057;-69
2024/01/24 07:24:44;;;;;;;38.75;7.63;;;10.50;99.90;;;;;;5019659;28;20132;-69
2024/01/24 07:27:11;;;;;;;36.17;6.97;;;10.50;99.90;;;;;;5020484;28;20045;-69
2024/01/24 07:29:38;;;;;;;44.88;8.60;;;10.50;99.90;;;;;;5020660;28;20045;-70
2024/01/24 07:32:05;;;;;;;42.00;6.35;;;10.50;99.90;;;;;;5020608;28;20048;-71
2024/01/24 07:34:32;;;;;;;44.35;6.70;;;10.50;99.90;;;;;;5021018;28;20053;-70
2024/01/24 07:37:00;;;;;;;38.88;7.22;;;10.50;99.90;;;;;;5023122;28;20460;-70
2024/01/24 07:39:28;;;;;;;41.10;7.53;;;10.40;99.90;;;;;;5022123;28;20057;-69
2024/01/24 07:41:55;;;;;;;40.60;7.35;;;10.40;99.90;;;;;;5020119;28;20283;-70
2024/01/24 07:44:23;;;;;;;46.47;7.70;;;10.50;99.90;;;;;;5018364;28;20050;-70
2024/01/24 07:46:50;;;;;;;49.75;8.50;;;10.40;99.90;;;;;;5020282;28;20045;-68
2024/01/24 07:49:17;;;;;;;31.30;5.82;;;10.40;99.90;;;;;;5018694;28;20054;-69
2024/01/24 07:51:46;;;;;;;69.22;9.13;;;10.40;99.90;;;;;;5020907;28;20803;-69
2024/01/24 07:54:17;;;;;;;34.28;7.38;;;10.40;99.90;;;;;;4977155;28;1142395;-67
2024/01/24 07:56:45;;;;;;;38.65;7.55;;;10.40;99.90;;;;;;5020226;28;20056;-69
2024/01/24 07:59:15;;;;;;;44.67;7.22;;;10.40;99.90;;;;;;5019161;28;20049;-69
2024/01/24 08:01:46;;;;;;;49.13;7.30;;;10.40;99.90;;;;;;5022243;28;20055;-70
2024/01/24 08:04:14;;;;;;;38.22;8.00;;;10.30;99.90;;;;;;5020924;28;20084;-69
2024/01/24 08:06:41;;;;;;;45.47;8.38;;;10.30;99.90;;;;;;5007454;28;20084;-69
2024/01/24 08:09:08;;;;;;;37.65;7.05;;;10.30;99.90;;;;;;5020726;28;20123;-69
2024/01/24 08:11:39;;;;;;;43.22;8.20;;;10.30;99.90;;;;;;5025513;28;20064;-69
2024/01/24 08:14:06;;;;;;;42.63;7.93;;;10.30;99.90;;;;;;5020821;28;20056;-69
2024/01/24 08:16:33;;;;;;;37.13;7.28;;;10.20;99.90;;;;;;5026506;28;20053;-73
2024/01/24 08:19:00;;;;;;;31.85;7.10;;;10.20;99.90;;;;;;5028720;28;20124;-69
2024/01/24 08:21:28;;;;;;;41.75;7.40;;;10.20;99.90;;;;;;5023539;28;20049;-68
2024/01/24 08:23:55;;;;;;;40.15;7.28;;;10.20;99.90;;;;;;5020518;28;20046;-69
2024/01/24 08:26:23;;;;;;;35.13;6.38;;;10.20;99.90;;;;;;5022254;28;20067;-69
2024/01/24 08:28:52;;;;;;;43.78;7.53;;;10.20;99.90;;;;;;5020156;28;20341;-69
2024/01/24 08:31:19;;;;;;;57.72;10.48;;;10.20;99.90;;;;;;5021320;28;20141;-69
2024/01/24 08:33:46;;;;;;;41.50;7.72;;;10.20;99.90;;;;;;5024966;28;20136;-69
2024/01/24 08:36:18;;;;;;;48.42;7.95;;;10.20;99.90;;;;;;5022025;28;20400;-69
2024/01/24 08:38:45;;;;;;;44.10;7.57;;;10.20;99.90;;;;;;5024961;28;20167;-68
2024/01/24 08:41:12;;;;;;;42.10;8.68;;;10.20;99.90;;;;;;5022829;28;20114;-70
2024/01/24 08:43:39;;;;;;;45.00;7.75;;;10.20;99.90;;;;;;5025358;28;20513;-69
2024/01/24 08:46:06;;;;;;;37.13;7.78;;;10.20;99.90;;;;;;5023320;28;20069;-69
2024/01/24 08:48:33;;;;;;;50.05;8.25;;;10.20;99.90;;;;;;5016394;28;20386;-68
2024/01/24 08:51:00;;;;;;;47.08;9.38;;;10.20;99.90;;;;;;5036162;28;20337;-67
2024/01/24 08:53:27;;;;;;;47.15;7.82;;;10.20;99.90;;;;;;5021145;28;20194;-67
2024/01/24 08:55:54;;;;;;;40.05;6.35;;;10.20;99.90;;;;;;5020564;28;20412;-67
2024/01/24 08:58:21;;;;;;;45.95;7.45;;;10.30;99.90;;;;;;5026145;28;20618;-68
2024/01/24 09:00:50;;;;;;;48.35;6.55;;;10.30;99.90;;;;;;5023097;28;20073;-67
2024/01/24 09:03:18;;;;;;;37.72;6.70;;;10.30;99.90;;;;;;5020060;28;20041;-68
2024/01/24 09:05:46;;;;;;;51.13;8.30;;;10.20;99.90;;;;;;5023450;28;20049;-67
2024/01/24 09:08:13;;;;;;;30.27;5.22;;;10.30;99.90;;;;;;5018341;28;20456;-68
2024/01/24 09:10:40;;;;;;;38.20;7.95;;;10.30;99.90;;;;;;5020910;28;20140;-67
2024/01/24 09:13:07;;;;;;;48.90;8.90;;;10.30;99.90;;;;;;5022990;28;20501;-68
2024/01/24 09:15:35;;;;;;;55.95;8.65;;;10.30;99.90;;;;;;5021824;28;20468;-67
2024/01/24 09:18:02;;;;;;;33.45;6.65;;;10.30;99.90;;;;;;5023613;28;20442;-67
2024/01/24 09:20:30;;;;;;;36.58;7.97;;;10.30;99.90;;;;;;5013516;28;20130;-67
2024/01/24 09:22:57;;;;;;;27.10;5.50;;;10.30;99.90;;;;;;5024193;28;20564;-67
2024/01/24 09:25:24;;;;;;;41.33;8.25;;;10.30;99.90;;;;;;5021919;28;20049;-67
2024/01/24 09:27:53;;;;;;;41.88;9.20;;;10.30;99.90;;;;;;5018155;28;20050;-68
2024/01/24 09:30:21;;;;;;;48.72;7.82;;;10.30;99.90;;;;;;5032808;28;20049;-67
2024/01/24 09:32:47;;;;;;;39.42;7.70;;;10.40;99.90;;;;;;5016792;28;20071;-67
2024/01/24 09:35:15;;;;;;;47.67;9.38;;;10.30;99.90;;;;;;5024544;28;20144;-67
2024/01/24 09:37:42;;;;;;;41.25;6.32;;;10.40;99.90;;;;;;5016568;28;20324;-67
2024/01/24 09:40:09;;;;;;;38.42;6.97;;;10.30;99.90;;;;;;5024500;28;20096;-67
2024/01/24 09:42:41;;;;;;;38.78;5.82;;;10.30;99.90;;;;;;5016232;28;20212;-69
2024/01/24 09:45:09;;;;;;;36.08;7.05;;;10.40;99.90;;;;;;5009874;28;20068;-68
2024/01/24 09:47:36;;;;;;;49.47;7.40;;;10.40;99.90;;;;;;5017468;28;20050;-69
2024/01/24 09:50:04;;;;;;;49.95;8.85;;;10.40;99.90;;;;;;5024922;28;20076;-68
2024/01/24 09:52:34;;;;;;;47.83;8.00;;;10.40;99.90;;;;;;5018580;28;20500;-68
2024/01/24 09:55:05;;;;;;;38.42;8.38;;;10.40;99.90;;;;;;5025105;28;20061;-67
2024/01/24 09:57:33;;;;;;;35.83;8.02;;;10.50;99.90;;;;;;5022122;28;20088;-68
2024/01/24 10:00:00;;;;;;;45.25;7.85;;;10.60;99.90;;;;;;5025724;28;20052;-67
2024/01/24 10:02:27;;;;;;;42.08;6.47;;;10.60;99.90;;;;;;5018051;28;20045;-70
2024/01/24 10:04:54;;;;;;;37.97;6.75;;;10.60;99.90;;;;;;5019757;28;20060;-68
2024/01/24 10:07:21;;;;;;;50.60;7.30;;;10.70;99.90;;;;;;5022515;28;20048;-67
2024/01/24 10:09:49;;;;;;;43.28;8.75;;;10.70;99.90;;;;;;5020550;28;20136;-67
2024/01/24 10:12:16;;;;;;;38.55;8.70;;;10.70;99.90;;;;;;5002862;28;20100;-68
2024/01/24 10:14:43;;;;;;;34.30;7.10;;;10.70;99.90;;;;;;5023271;28;20124;-68
2024/01/24 10:17:11;;;;;;;50.83;9.05;;;10.70;99.90;;;;;;5023518;28;20096;-68
2024/01/24 10:19:38;;;;;;;43.20;7.50;;;10.80;99.90;;;;;;5015514;28;20447;-68
2024/01/24 10:22:05;;;;;;;43.03;7.22;;;10.70;99.90;;;;;;5019863;28;20179;-68
2024/01/24 10:24:36;;;;;;;43.05;6.97;;;10.80;99.90;;;;;;5017114;28;20053;-68
2024/01/24 10:27:03;;;;;;;38.88;6.78;;;10.90;99.90;;;;;;5023426;28;20575;-68
2024/01/24 10:29:30;;;;;;;54.65;7.35;;;10.90;99.90;;;;;;5013669;28;20076;-68
2024/01/24 10:31:58;;;;;;;43.60;7.88;;;10.90;99.90;;;;;;5024690;28;20049;-68
2024/01/24 10:34:27;;;;;;;38.42;8.35;;;10.90;99.90;;;;;;5017850;28;20045;-68
2024/01/24 10:36:55;;;;;;;37.22;7.18;;;11.00;99.90;;;;;;5024704;28;20053;-67
2024/01/24 10:39:22;;;;;;;34.97;6.72;;;11.00;99.90;;;;;;5019181;28;20042;-68
2024/01/24 10:41:55;;;;;;;51.00;7.95;;;11.10;99.90;;;;;;5021447;28;20140;-68
2024/01/24 10:44:25;;;;;;;38.65;7.50;;;11.10;99.90;;;;;;5004074;28;20155;-69
2024/01/24 10:46:52;;;;;;;53.72;9.13;;;11.10;99.90;;;;;;5022580;28;20081;-68
2024/01/24 10:49:21;;;;;;;49.33;8.95;;;11.20;99.90;;;;;;5017867;28;20045;-67
2024/01/24 10:51:48;;;;;;;34.58;5.47;;;11.20;99.90;;;;;;5020973;28;20128;-68
2024/01/24 10:54:18;;;;;;;39.92;7.45;;;11.20;99.90;;;;;;5018829;28;20052;-68
2024/01/24 10:56:47;;;;;;;38.58;7.20;;;11.20;99.90;;;;;;5038156;28;20073;-68
2024/01/24 10:59:14;;;;;;;43.05;6.18;;;11.30;99.90;;;;;;5024010;28;20057;-67
2024/01/24 11:01:41;;;;;;;38.92;8.88;;;11.30;99.90;;;;;;5021209;28;20057;-67
2024/01/24 11:04:09;;;;;;;41.42;6.28;;;11.20;99.90;;;;;;5020389;28;20049;-67
2024/01/24 11:06:41;;;;;;;40.42;8.50;;;11.20;99.90;;;;;;5023412;28;20045;-67
2024/01/24 11:09:23;;;;;;;42.92;7.53;;;11.30;99.90;;;;;;5023380;28;20457;-68
2024/01/24 11:11:55;;;;;;;42.67;6.95;;;11.30;99.90;;;;;;5018922;28;20054;-68
2024/01/24 11:14:32;;;;;;;40.30;7.55;;;11.30;99.90;;;;;;5011792;28;20053;-67
2024/01/24 11:17:02;;;;;;;44.30;7.68;;;11.40;99.90;;;;;;5022565;28;20084;-67
2024/01/24 11:19:29;;;;;;;38.03;6.47;;;11.50;99.90;;;;;;5017251;28;20037;-67
2024/01/24 11:22:04;;;;;;;38.53;7.63;;;11.60;99.90;;;;;;5019108;28;20136;-69
2024/01/24 11:24:46;;;;;;;33.30;5.88;;;11.60;99.90;;;;;;5024770;28;20134;-69
2024/01/24 11:27:34;;;;;;;36.90;7.07;;;11.60;99.90;;;;;;5026477;28;20122;-68
2024/01/24 11:30:28;;;;;;;32.83;7.68;;;11.70;99.90;;;;;;5028100;28;20089;-69
2024/01/24 11:32:59;;;;;;;46.97;6.43;;;11.70;99.90;;;;;;5015171;28;20049;-68
2024/01/24 11:35:32;;;;;;;26.40;6.18;;;11.70;99.90;;;;;;5020536;28;20744;-68
2024/01/24 11:38:36;;;;;;;53.83;8.23;;;11.70;99.90;;;;;;5023766;28;20041;-68
2024/01/24 11:41:12;;;;;;;34.38;7.53;;;11.70;99.90;;;;;;5018309;28;20049;-69
2024/01/24 11:43:42;;;;;;;37.55;6.32;;;11.60;99.90;;;;;;5016809;28;20503;-68
2024/01/24 11:46:09;;;;;;;36.80;6.75;;;11.70;99.90;;;;;;5016135;28;20055;-68
2024/01/24 11:48:37;;;;;;;38.00;6.85;;;11.70;99.90;;;;;;5021753;28;20415;-69
2024/01/24 11:51:12;;;;;;;40.60;7.63;;;11.70;99.90;;;;;;5016316;28;20049;-68
2024/01/24 11:53:39;;;;;;;24.23;6.00;;;11.80;99.90;;;;;;5016734;28;20513;-69
2024/01/24 11:56:07;;;;;;;23.23;5.20;;;11.80;99.90;;;;;;5012474;28;20054;-71
2024/01/24 11:58:34;;;;;;;47.50;7.57;;;11.90;99.90;;;;;;4999949;28;20046;-69
2024/01/24 12:01:02;;;;;;;27.02;6.80;;;11.90;99.90;;;;;;5019562;28;20504;-68
2024/01/24 12:03:29;;;;;;;33.92;6.03;;;11.90;99.90;;;;;;5019911;28;20504;-68
2024/01/24 12:06:00;;;;;;;41.42;6.75;;;11.90;99.90;;;;;;5022523;28;20096;-70
2024/01/24 12:08:27;;;;;;;28.50;5.40;;;11.90;99.90;;;;;;5020484;28;20049;-69
2024/01/24 12:10:54;;;;;;;37.08;7.13;;;11.90;99.90;;;;;;5018563;28;20060;-67
2024/01/24 12:13:23;;;;;;;29.30;5.70;;;11.90;99.90;;;;;;5019634;28;20123;-68
2024/01/24 12:15:50;;;;;;;33.17;5.07;;;11.90;99.90;;;;;;5030398;28;20508;-68
2024/01/24 12:18:18;;;;;;;34.70;6.20;;;11.80;99.90;;;;;;5018104;28;20045;-68
2024/01/24 12:20:50;;;;;;;26.75;4.93;;;11.80;99.90;;;;;;5020998;28;20057;-69
2024/01/24 12:23:18;;;;;;;28.13;5.43;;;11.80;99.90;;;;;;5014282;28;20073;-68
2024/01/24 12:25:45;;;;;;;31.48;5.03;;;11.80;99.90;;;;;;5021584;28;20164;-68
2024/01/24 12:28:12;;;;;;;24.00;5.68;;;11.70;99.90;;;;;;5019195;28;20052;-68
2024/01/24 12:30:47;;;;;;;26.83;4.28;;;11.80;99.90;;;;;;5021575;28;20045;-69
2024/01/24 12:33:15;;;;;;;34.58;6.53;;;11.70;99.90;;;;;;5014437;28;20049;-68
2024/01/24 12:35:46;;;;;;;31.75;5.60;;;11.70;99.90;;;;;;5024399;28;20330;-69
2024/01/24 12:38:14;;;;;;;27.30;5.30;;;11.80;99.90;;;;;;5016930;28;20063;-69
2024/01/24 12:40:41;;;;;;;25.00;6.38;;;11.80;99.90;;;;;;5018004;28;20050;-69
2024/01/24 12:43:08;;;;;;;33.35;5.72;;;11.90;99.90;;;;;;5012483;28;20223;-69